Back to Top

Language: 

My Weather Underground Personal Weather Station Historical Data with Graphs...

Delerius Weather Station Historical Data
Daily Summary for January 2, 2017 Units:  Metric    English   Both
« Previous Day
Next Day »
Daily Weekly Monthly Yearly Custom
  High: Low: Average:
Temperature: 5.3 °C 0.2 °C 2.2 °C
Dew Point: 1.8 °C -1.6 °C -0.2 °C
Humidity: 94 % 70 % 85 %
Wind Speed: 16.1 km/h 0 km/h 8.5 km/h
Wind Gust: 20.9 km/h - -
Wind:- - NW
Pressure: 1030.7 hPa 1027.3 hPa -
Precipitation: 0 mm    
Historical Graphs
 
 
Tabular Data for January 2, 2017
Time Temperature Dew Point Pressure Wind Wind Speed Wind Gust Humidity Rainfall Rate (Hourly) solar Conditions
00:00 2.8 °C 1.8 °C 1027.3 hPa NNW 9.7 km/h 19.3 km/h 93 % 0 mm 0 W/m2
00:05 2.8 °C 1.8 °C 1027.3 hPa NNW 8 km/h 19.3 km/h 93 % 0 mm 0 W/m2
00:15 3 °C 1.8 °C 1027.3 hPa North 4.8 km/h 6.4 km/h 92 % 0 mm 0 W/m2
00:20 3 °C 1.8 °C 1027.3 hPa North 1.6 km/h 1.6 km/h 92 % 0 mm 0 W/m2
00:25 3 °C 1.8 °C 1027.3 hPa North 1.6 km/h 1.6 km/h 92 % 0 mm 0 W/m2
00:30 2.9 °C 1.8 °C 1027.3 hPa North 1.6 km/h 1.6 km/h 92 % 0 mm 0 W/m2
00:35 2.9 °C 1.6 °C 1027.3 hPa North 1.6 km/h 1.6 km/h 91 % 0 mm 0 W/m2
00:40 2.8 °C 1.4 °C 1027.3 hPa Calm     91 % 0 mm 0 W/m2
00:45 2.7 °C 1.3 °C 1027.3 hPa Calm   3.2 km/h 91 % 0 mm 0 W/m2
00:50 2.6 °C 1.2 °C 1027.3 hPa NNW 1.6 km/h 1.6 km/h 91 % 0 mm 0 W/m2
01:00 2.4 °C 1.2 °C 1027.3 hPa WNW 1.6 km/h 8 km/h 92 % 0 mm 0 W/m2
01:05 2.4 °C 1.2 °C 1027.3 hPa WNW 3.2 km/h 16.1 km/h 92 % 0 mm 0 W/m2
01:10 2.3 °C 1.3 °C 1027.3 hPa WNW 3.2 km/h 3.2 km/h 93 % 0 mm 0 W/m2
01:15 2.3 °C 1.3 °C 1027.3 hPa NW 3.2 km/h 8 km/h 93 % 0 mm 0 W/m2
01:20 2.3 °C 1.3 °C 1027.3 hPa NNW 6.4 km/h 16.1 km/h 93 % 0 mm 0 W/m2
01:25 2.3 °C 1.3 °C 1027.7 hPa NNW 6.4 km/h 16.1 km/h 93 % 0 mm 0 W/m2
01:35 2.3 °C 1.3 °C 1027.7 hPa WNW 4.8 km/h 16.1 km/h 93 % 0 mm 0 W/m2
01:40 2.2 °C 1 °C 1028 hPa NW 8 km/h 16.1 km/h 92 % 0 mm 0 W/m2
01:45 2.1 °C 0.9 °C 1028 hPa NW 9.7 km/h 16.1 km/h 92 % 0 mm 0 W/m2
01:50 1.9 °C 0.9 °C 1028 hPa NW 8 km/h 16.1 km/h 93 % 0 mm 0 W/m2
01:55 1.8 °C 0.8 °C 1028 hPa WNW 6.4 km/h 16.1 km/h 93 % 0 mm 0 W/m2
02:00 1.8 °C 0.8 °C 1028 hPa NW 8 km/h 8 km/h 93 % 0 mm 0 W/m2
02:10 1.6 °C 0.6 °C 1028 hPa NW 3.2 km/h 16.1 km/h 93 % 0 mm 0 W/m2
02:15 1.6 °C 0.6 °C 1028.3 hPa NW 6.4 km/h 16.1 km/h 93 % 0 mm 0 W/m2
02:20 1.6 °C 0.6 °C 1028 hPa WNW 9.7 km/h 9.7 km/h 93 % 0 mm 0 W/m2
02:25 1.4 °C 0.4 °C 1028 hPa WNW 8 km/h 16.1 km/h 93 % 0 mm 0 W/m2
02:30 1.4 °C 0.4 °C 1028 hPa NW 6.4 km/h 16.1 km/h 93 % 0 mm 0 W/m2
02:35 1.4 °C 0.4 °C 1028.3 hPa NW 6.4 km/h 16.1 km/h 93 % 0 mm 0 W/m2
02:40 1.4 °C 0.6 °C 1028.7 hPa WNW 8 km/h 16.1 km/h 94 % 0 mm 0 W/m2
02:50 1.4 °C 0.6 °C 1028.3 hPa NNW 9.7 km/h 16.1 km/h 94 % 0 mm 0 W/m2
02:55 1.5 °C 0.7 °C 1028.3 hPa NW 8 km/h 16.1 km/h 94 % 0 mm 0 W/m2
03:00 1.5 °C 0.5 °C 1028.7 hPa NW 6.4 km/h 16.1 km/h 93 % 0 mm 0 W/m2
03:05 1.5 °C 0.5 °C 1028.7 hPa NW 8 km/h 16.1 km/h 93 % 0 mm 0 W/m2
03:10 1.5 °C 0.5 °C 1028.7 hPa NW 8 km/h 8 km/h 93 % 0 mm 0 W/m2
03:20 1.4 °C 0.4 °C 1028.3 hPa NW 6.4 km/h 6.4 km/h 93 % 0 mm 0 W/m2
03:25 1.4 °C 0.4 °C 1028.3 hPa WNW 6.4 km/h 16.1 km/h 93 % 0 mm 0 W/m2
03:30 1.3 °C 0.3 °C 1028.3 hPa NW 6.4 km/h 16.1 km/h 93 % 0 mm 0 W/m2
03:35 1.2 °C 0.2 °C 1028.3 hPa NW 6.4 km/h 16.1 km/h 93 % 0 mm 0 W/m2
03:40 1.2 °C 0.2 °C 1028.7 hPa NW 6.4 km/h 16.1 km/h 93 % 0 mm 0 W/m2
03:45 1.1 °C 0.1 °C 1028.7 hPa NW 4.8 km/h 16.1 km/h 93 % 0 mm 0 W/m2
03:50 1.1 °C 0.1 °C 1028.7 hPa WNW 6.4 km/h 6.4 km/h 93 % 0 mm 0 W/m2
04:00 1.2 °C 0.4 °C 1028.7 hPa NW 8 km/h 16.1 km/h 94 % 0 mm 0 W/m2
04:05 1.4 °C 0.6 °C 1028.7 hPa NW 9.7 km/h 16.1 km/h 94 % 0 mm 0 W/m2
04:10 1.5 °C 0.7 °C 1028.7 hPa NNW 9.7 km/h 16.1 km/h 94 % 0 mm 0 W/m2
04:15 1.6 °C 0.6 °C 1029 hPa NW 6.4 km/h 16.1 km/h 93 % 0 mm 0 W/m2
04:20 1.5 °C 0.5 °C 1028.7 hPa NW 4.8 km/h 16.1 km/h 93 % 0 mm 0 W/m2
04:30 1.4 °C 0.4 °C 1028.7 hPa NW 6.4 km/h 6.4 km/h 93 % 0 mm 0 W/m2
04:35 1.4 °C 0.4 °C 1028.7 hPa NNW 4.8 km/h 16.1 km/h 93 % 0 mm 0 W/m2
04:40 1.4 °C 0.4 °C 1028.7 hPa NW 6.4 km/h 6.4 km/h 93 % 0 mm 0 W/m2
04:45 1.4 °C 0.4 °C 1028.7 hPa NNW 8 km/h 8 km/h 93 % 0 mm 0 W/m2
04:55 1.3 °C 0.1 °C 1029 hPa NW 8 km/h 16.1 km/h 92 % 0 mm 0 W/m2
05:00 1.2 °C 0.1 °C 1029.3 hPa WNW 9.7 km/h 16.1 km/h 92 % 0 mm 0 W/m2
05:05 1.1 °C -0.1 °C 1029.3 hPa WNW 9.7 km/h 16.1 km/h 92 % 0 mm 0 W/m2
05:10 1.1 °C -0.1 °C 1029.3 hPa NW 9.7 km/h 9.7 km/h 92 % 0 mm 0 W/m2
05:20 1.1 °C 0.1 °C 1029.3 hPa NW 8 km/h 8 km/h 93 % 0 mm 0 W/m2
05:25 1.1 °C 0.1 °C 1029.3 hPa NW 8 km/h 16.1 km/h 93 % 0 mm 0 W/m2
05:30 1.1 °C 0.1 °C 1029.3 hPa NW 8 km/h 16.1 km/h 93 % 0 mm 0 W/m2
05:35 1.1 °C 0.1 °C 1029.3 hPa NW 6.4 km/h 16.1 km/h 93 % 0 mm 0 W/m2
05:40 1.1 °C 0.1 °C 1029.3 hPa NW 6.4 km/h 16.1 km/h 93 % 0 mm 0 W/m2
05:45 1.2 °C 0.2 °C 1029.3 hPa NW 8 km/h 16.1 km/h 93 % 0 mm 0 W/m2
05:55 1.4 °C 0.2 °C 1029.3 hPa NW 9.7 km/h 11.3 km/h 92 % 0 mm 0 W/m2
06:00 1.4 °C 0.3 °C 1029.3 hPa NNW 11.3 km/h 16.1 km/h 92 % 0 mm 0 W/m2
06:05 1.5 °C 0.2 °C 1029.7 hPa NNW 9.7 km/h 16.1 km/h 91 % 0 mm 0 W/m2
06:10 1.5 °C 0.2 °C 1029.7 hPa NNW 8 km/h 8 km/h 91 % 0 mm 0 W/m2
06:15 1.4 °C 0.1 °C 1029.7 hPa NNW 8 km/h 16.1 km/h 91 % 0 mm 0 W/m2
06:25 1.3 °C -0.1 °C 1029.3 hPa NW 6.4 km/h 16.1 km/h 91 % 0 mm 0 W/m2
06:30 1.2 °C -0.1 °C 1029.3 hPa NNW 6.4 km/h 16.1 km/h 91 % 0 mm 0 W/m2
06:35 1.1 °C -0.2 °C 1029.3 hPa NW 4.8 km/h 16.1 km/h 91 % 0 mm 0 W/m2
06:40 1 °C -0.3 °C 1029.3 hPa NW 4.8 km/h 16.1 km/h 91 % 0 mm 0 W/m2
06:45 0.9 °C -0.3 °C 1029.3 hPa NW 6.4 km/h 16.1 km/h 91 % 0 mm 0 W/m2
06:50 1 °C -0.2 °C 1029.3 hPa NNW 9.7 km/h 9.7 km/h 92 % 0 mm 0 W/m2
06:55 1.1 °C -0.2 °C 1029.3 hPa NW 9.7 km/h 16.1 km/h 91 % 0 mm 0 W/m2
07:05 1.1 °C -0.2 °C 1029.7 hPa NNW 6.4 km/h 16.1 km/h 91 % 0 mm 0 W/m2
07:10 1 °C -0.3 °C 1029.3 hPa NNW 8 km/h 16.1 km/h 91 % 0 mm 0 W/m2
07:15 1.1 °C -0.2 °C 1029.3 hPa NW 8 km/h 16.1 km/h 91 % 0 mm 0 W/m2
07:20 1.1 °C -0.2 °C 1029.3 hPa NW 8 km/h 8 km/h 91 % 0 mm 0 W/m2
07:25 1.1 °C -0.2 °C 1029.7 hPa WNW 6.4 km/h 16.1 km/h 91 % 0 mm 0 W/m2
07:30 1 °C -0.4 °C 1029.7 hPa NW 6.4 km/h 16.1 km/h 90 % 0 mm 0 W/m2
07:40 0.8 °C -0.4 °C 1029.7 hPa WNW 8 km/h 16.1 km/h 91 % 0 mm 0 W/m2
07:50 0.7 °C -0.6 °C 1030 hPa NW 6.4 km/h 16.1 km/h 91 % 0 mm 0 W/m2
07:55 0.7 °C -0.6 °C 1030 hPa NW 6.4 km/h 16.1 km/h 91 % 0 mm 0 W/m2
08:00 0.7 °C -0.6 °C 1030 hPa WNW 6.4 km/h 16.1 km/h 91 % 0 mm 0 W/m2
08:05 0.6 °C -0.7 °C 1030 hPa WNW 4.8 km/h 16.1 km/h 91 % 0 mm 0 W/m2
08:10 0.5 °C -0.8 °C 1030 hPa NW 1.6 km/h 16.1 km/h 91 % 0 mm 0 W/m2
08:20 0.4 °C -0.9 °C 1030.4 hPa NW 3.2 km/h 16.1 km/h 91 % 0 mm 5 W/m2
08:25 0.3 °C -0.8 °C 1030.4 hPa NW 4.8 km/h 16.1 km/h 92 % 0 mm 7 W/m2
08:30 0.3 °C -0.8 °C 1030 hPa NW 4.8 km/h 4.8 km/h 92 % 0 mm 9 W/m2
08:35 0.3 °C -0.9 °C 1030.4 hPa NW 4.8 km/h 8 km/h 92 % 0 mm 11 W/m2
08:40 0.3 °C -0.9 °C 1030.4 hPa WNW 6.4 km/h 6.4 km/h 92 % 0 mm 12 W/m2
08:45 0.3 °C -0.9 °C 1030.4 hPa WNW 6.4 km/h 16.1 km/h 92 % 0 mm 14 W/m2
08:55 0.2 °C -0.9 °C 1030.4 hPa WNW 3.2 km/h 16.1 km/h 92 % 0 mm 19 W/m2
09:05 0.3 °C -0.9 °C 1030.4 hPa WNW 6.4 km/h 6.4 km/h 92 % 0 mm 19 W/m2
09:10 0.3 °C -0.8 °C 1030.4 hPa NW 4.8 km/h 16.1 km/h 92 % 0 mm 21 W/m2
09:15 0.4 °C -0.8 °C 1030.4 hPa NW 6.4 km/h 16.1 km/h 92 % 0 mm 25 W/m2
09:20 0.5 °C -0.7 °C 1030.7 hPa WNW 8 km/h 16.1 km/h 92 % 0 mm 28 W/m2
09:30 0.8 °C -0.5 °C 1030.4 hPa NW 9.7 km/h 9.7 km/h 91 % 0 mm 90 W/m2
09:35 0.9 °C -0.3 °C 1030.7 hPa WNW 9.7 km/h 16.1 km/h 91 % 0 mm 109 W/m2
09:40 1.1 °C -0.4 °C 1030.7 hPa WNW 9.7 km/h 17.7 km/h 90 % 0 mm 123 W/m2
09:45 1.3 °C -0.2 °C 1030.7 hPa NNW 11.3 km/h 17.7 km/h 90 % 0 mm 127 W/m2
09:50 1.6 °C -0.1 °C 1030.7 hPa NW 11.3 km/h 11.3 km/h 89 % 0 mm 134 W/m2
09:55 1.8 °C 0.1 °C 1030.7 hPa WNW 11.3 km/h 16.1 km/h 88 % 0 mm 141 W/m2
10:00 2.2 °C 0.2 °C 1030.7 hPa WNW 12.9 km/h 16.1 km/h 87 % 0 mm 149 W/m2
10:05 2.4 °C 0.1 °C 1030.7 hPa WNW 14.5 km/h 16.1 km/h 85 % 0 mm 156 W/m2
10:10 2.6 °C 0.2 °C 1030.4 hPa NW 12.9 km/h 12.9 km/h 84 % 0 mm 162 W/m2
10:20 2.9 °C 0.3 °C 1030.7 hPa WNW 11.3 km/h 11.3 km/h 83 % 0 mm 174 W/m2
10:25 3.1 °C 0.1 °C 1030.7 hPa WNW 11.3 km/h 16.1 km/h 81 % 0 mm 181 W/m2
10:30 3.2 °C 0.1 °C 1030.7 hPa NW 11.3 km/h 11.3 km/h 80 % 0 mm 186 W/m2
10:35 3.3 °C 0.2 °C 1030.7 hPa WNW 12.9 km/h 12.9 km/h 80 % 0 mm 192 W/m2
10:40 3.5 °C 0.2 °C 1030.7 hPa West 11.3 km/h 11.3 km/h 79 % 0 mm 197 W/m2
10:45 3.6 °C 0.3 °C 1030.7 hPa WNW 9.7 km/h 16.1 km/h 79 % 0 mm 202 W/m2
10:50 3.7 °C 0.2 °C 1030.4 hPa NW 11.3 km/h 11.3 km/h 78 % 0 mm 207 W/m2
11:00 3.9 °C 0.4 °C 1030.7 hPa WNW 9.7 km/h 16.1 km/h 78 % 0 mm 216 W/m2
11:10 4.1 °C 0.4 °C 1030.4 hPa NW 11.3 km/h 16.1 km/h 77 % 0 mm 221 W/m2
11:15 4.2 °C 0.3 °C 1030.4 hPa WNW 11.3 km/h 16.1 km/h 76 % 0 mm 225 W/m2
11:20 4.2 °C 0.2 °C 1030.4 hPa NW 11.3 km/h 11.3 km/h 75 % 0 mm 227 W/m2
11:25 4.3 °C 0.2 °C 1030.4 hPa WNW 11.3 km/h 14.5 km/h 75 % 0 mm 229 W/m2
11:35 4.2 °C 0 °C 1030 hPa WNW 12.9 km/h 16.1 km/h 74 % 0 mm 236 W/m2
11:40 4.2 °C 0 °C 1030 hPa WNW 14.5 km/h 14.5 km/h 74 % 0 mm 237 W/m2
11:45 4.3 °C 0.1 °C 1030 hPa WNW 14.5 km/h 16.1 km/h 74 % 0 mm 237 W/m2
11:50 4.3 °C 0.1 °C 1030 hPa NNW 14.5 km/h 14.5 km/h 74 % 0 mm 237 W/m2
11:55 4.4 °C 0.2 °C 1030 hPa WNW 14.5 km/h 19.3 km/h 74 % 0 mm 237 W/m2
12:00 4.4 °C -0.1 °C 1030 hPa NW 14.5 km/h 14.5 km/h 73 % 0 mm 239 W/m2
12:10 4.6 °C 0.4 °C 1029.7 hPa NW 11.3 km/h 11.3 km/h 74 % 0 mm 239 W/m2
12:15 4.7 °C 0.4 °C 1030 hPa NW 12.9 km/h 19.3 km/h 74 % 0 mm 241 W/m2
12:20 4.7 °C 0.2 °C 1029.7 hPa NNW 14.5 km/h 14.5 km/h 73 % 0 mm 239 W/m2
12:25 4.7 °C 0.3 °C 1029.7 hPa NW 14.5 km/h 19.3 km/h 73 % 0 mm 239 W/m2
12:30 4.7 °C 0.1 °C 1029.7 hPa NW 14.5 km/h 17.7 km/h 72 % 0 mm 239 W/m2
12:35 4.7 °C 0.1 °C 1029.7 hPa NW 16.1 km/h 17.7 km/h 72 % 0 mm 237 W/m2
12:40 4.8 °C -0.1 °C 1029.7 hPa NW 16.1 km/h 19.3 km/h 71 % 0 mm 236 W/m2
12:45 4.8 °C -0.2 °C 1029.7 hPa WNW 16.1 km/h 19.3 km/h 70 % 0 mm 234 W/m2
12:55 4.9 °C 0.1 °C 1030 hPa NW 11.3 km/h 16.1 km/h 71 % 0 mm 229 W/m2
13:00 4.9 °C -0.1 °C 1029.7 hPa NNW 11.3 km/h 16.1 km/h 70 % 0 mm 225 W/m2
13:05 4.9 °C 0.1 °C 1029.7 hPa NNW 12.9 km/h 17.7 km/h 71 % 0 mm 220 W/m2
13:10 4.8 °C -0.2 °C 1029.7 hPa NW 14.5 km/h 14.5 km/h 70 % 0 mm 216 W/m2
13:15 4.8 °C -0.1 °C 1029.7 hPa SW 14.5 km/h 16.1 km/h 71 % 0 mm 211 W/m2
13:20 4.8 °C 0 °C 1029.7 hPa WNW 14.5 km/h 14.5 km/h 71 % 0 mm 209 W/m2
13:25 4.9 °C -0.1 °C 1029.7 hPa WNW 12.9 km/h 16.1 km/h 70 % 0 mm 204 W/m2
13:35 4.8 °C -0.2 °C 1029.7 hPa NW 14.5 km/h 16.1 km/h 70 % 0 mm 195 W/m2
13:40 4.8 °C 0 °C 1029.7 hPa WNW 12.9 km/h 16.1 km/h 71 % 0 mm 190 W/m2
13:45 4.8 °C 0 °C 1029.7 hPa NW 12.9 km/h 16.1 km/h 71 % 0 mm 185 W/m2
13:50 4.8 °C 0 °C 1029.7 hPa NW 14.5 km/h 20.9 km/h 71 % 0 mm 178 W/m2
13:55 4.9 °C 0.1 °C 1029.7 hPa NW 12.9 km/h 20.9 km/h 71 % 0 mm 172 W/m2
14:05 5 °C 0.2 °C 1029.3 hPa WNW 12.9 km/h 16.1 km/h 71 % 0 mm 158 W/m2
14:10 5.1 °C 0.2 °C 1029.3 hPa NW 12.9 km/h 12.9 km/h 71 % 0 mm 151 W/m2
14:15 5.1 °C 0.3 °C 1029.3 hPa WNW 11.3 km/h 16.1 km/h 71 % 0 mm 142 W/m2
14:20 5.2 °C 0.3 °C 1029.3 hPa WNW 9.7 km/h 16.1 km/h 71 % 0 mm 137 W/m2
14:25 5.2 °C 0.2 °C 1029.3 hPa NW 8 km/h 16.1 km/h 70 % 0 mm 128 W/m2
14:30 5.3 °C 0.2 °C 1029.3 hPa West 8 km/h 16.1 km/h 70 % 0 mm 121 W/m2
14:40 5.2 °C 0.2 °C 1029.7 hPa NW 8 km/h 16.1 km/h 70 % 0 mm 104 W/m2
14:45 5.2 °C 0.1 °C 1029.3 hPa WNW 8 km/h 16.1 km/h 70 % 0 mm 97 W/m2
14:50 5.1 °C 0.1 °C 1029.3 hPa NW 9.7 km/h 16.1 km/h 70 % 0 mm 88 W/m2
14:55 4.9 °C -0.1 °C 1029.3 hPa WNW 9.7 km/h 16.1 km/h 70 % 0 mm 81 W/m2
15:00 4.7 °C -0.3 °C 1029.3 hPa WNW 9.7 km/h 9.7 km/h 70 % 0 mm 70 W/m2
15:05 4.4 °C -0.6 °C 1029.3 hPa NW 9.7 km/h 16.1 km/h 70 % 0 mm 54 W/m2
15:15 4.1 °C -0.7 °C 1029.3 hPa WNW 9.7 km/h 16.1 km/h 71 % 0 mm 19 W/m2
15:20 4 °C -0.6 °C 1029.3 hPa NW 8 km/h 8 km/h 72 % 0 mm 18 W/m2
15:25 3.8 °C -0.8 °C 1029.3 hPa NW 8 km/h 16.1 km/h 72 % 0 mm 16 W/m2
15:30 3.7 °C -0.7 °C 1029.3 hPa WNW 8 km/h 8 km/h 73 % 0 mm 14 W/m2
15:40 3.6 °C -0.7 °C 1029.3 hPa WNW 4.8 km/h 16.1 km/h 74 % 0 mm 12 W/m2
15:45 3.4 °C -0.8 °C 1029.3 hPa WNW 6.4 km/h 16.1 km/h 74 % 0 mm 11 W/m2
15:50 3.3 °C -0.9 °C 1029.3 hPa WNW 8 km/h 8 km/h 74 % 0 mm 9 W/m2
15:55 3.1 °C -0.9 °C 1029.7 hPa NW 8 km/h 16.1 km/h 75 % 0 mm 7 W/m2
16:00 3 °C -0.8 °C 1029.7 hPa WNW 6.4 km/h 16.1 km/h 76 % 0 mm 5 W/m2
16:10 2.8 °C -0.8 °C 1029.3 hPa WNW 9.7 km/h 16.1 km/h 77 % 0 mm 0 W/m2
16:15 2.7 °C -0.9 °C 1029.3 hPa WNW 9.7 km/h 16.1 km/h 77 % 0 mm 0 W/m2
16:20 2.6 °C -1.1 °C 1029.3 hPa NW 8 km/h 16.1 km/h 77 % 0 mm 0 W/m2
16:25 2.4 °C -1 °C 1029.3 hPa WNW 9.7 km/h 16.1 km/h 78 % 0 mm 0 W/m2
16:30 2.3 °C -1.1 °C 1029.7 hPa NW 9.7 km/h 9.7 km/h 78 % 0 mm 0 W/m2
16:35 2.3 °C -1 °C 1029.3 hPa NW 9.7 km/h 16.1 km/h 79 % 0 mm 0 W/m2
16:45 2.2 °C -1.1 °C 1029.7 hPa NW 9.7 km/h 16.1 km/h 79 % 0 mm 0 W/m2
16:50 2.1 °C -1.2 °C 1029.7 hPa NW 9.7 km/h 9.7 km/h 79 % 0 mm 0 W/m2
16:55 2 °C -1.1 °C 1029.3 hPa WNW 8 km/h 16.1 km/h 80 % 0 mm 0 W/m2
17:00 1.9 °C -1.2 °C 1029.7 hPa WNW 8 km/h 8 km/h 80 % 0 mm 0 W/m2
17:10 1.7 °C -1.2 °C 1029.7 hPa NW 8 km/h 8 km/h 81 % 0 mm 0 W/m2
17:15 1.7 °C -1.2 °C 1029.7 hPa WNW 9.7 km/h 11.3 km/h 81 % 0 mm 0 W/m2
17:20 1.6 °C -1.1 °C 1029.7 hPa NW 9.7 km/h 9.7 km/h 82 % 0 mm 0 W/m2
17:25 1.6 °C -1.2 °C 1029.7 hPa WNW 9.7 km/h 16.1 km/h 82 % 0 mm 0 W/m2
17:30 1.6 °C -1.2 °C 1029.3 hPa WNW 9.7 km/h 9.7 km/h 82 % 0 mm 0 W/m2
17:40 1.5 °C -1.1 °C 1029.3 hPa WNW 8 km/h 16.1 km/h 83 % 0 mm 0 W/m2
17:45 1.5 °C -1.1 °C 1029.3 hPa WNW 8 km/h 16.1 km/h 83 % 0 mm 0 W/m2
17:50 1.5 °C -1.1 °C 1029.3 hPa WNW 8 km/h 16.1 km/h 83 % 0 mm 0 W/m2
17:55 1.5 °C -1.1 °C 1029.3 hPa NW 9.7 km/h 16.1 km/h 83 % 0 mm 0 W/m2
18:00 1.6 °C -1 °C 1029.3 hPa WNW 9.7 km/h 16.1 km/h 83 % 0 mm 0 W/m2
18:05 1.6 °C -1 °C 1029.3 hPa WNW 9.7 km/h 16.1 km/h 83 % 0 mm 0 W/m2
18:15 1.5 °C -1.1 °C 1029.3 hPa WNW 8 km/h 16.1 km/h 83 % 0 mm 0 W/m2
18:20 1.4 °C -1.1 °C 1029 hPa WNW 8 km/h 16.1 km/h 83 % 0 mm 0 W/m2
18:25 1.4 °C -1.1 °C 1029.3 hPa WNW 8 km/h 16.1 km/h 83 % 0 mm 0 W/m2
18:30 1.4 °C -1.2 °C 1029 hPa WNW 8 km/h 8 km/h 83 % 0 mm 0 W/m2
18:35 1.4 °C -1.2 °C 1029.3 hPa WNW 9.7 km/h 9.7 km/h 83 % 0 mm 0 W/m2
18:40 1.4 °C -1.2 °C 1029.3 hPa WNW 9.7 km/h 9.7 km/h 83 % 0 mm 0 W/m2
18:50 1.4 °C -1.3 °C 1029.3 hPa WNW 8 km/h 16.1 km/h 82 % 0 mm 0 W/m2
18:55 1.4 °C -1.3 °C 1029.3 hPa WNW 6.4 km/h 16.1 km/h 82 % 0 mm 0 W/m2
19:00 1.3 °C -1.4 °C 1029 hPa WNW 4.8 km/h 16.1 km/h 82 % 0 mm 0 W/m2
19:05 1.3 °C -1.4 °C 1029 hPa WNW 3.2 km/h 16.1 km/h 82 % 0 mm 0 W/m2
19:10 1.2 °C -1.6 °C 1029 hPa WNW 3.2 km/h 16.1 km/h 82 % 0 mm 0 W/m2
19:15 1.1 °C -1.5 °C 1029 hPa WNW 1.6 km/h 16.1 km/h 83 % 0 mm 0 W/m2
19:20 0.9 °C -1.6 °C 1029.3 hPa WNW 3.2 km/h 16.1 km/h 83 % 0 mm 0 W/m2
19:30 0.9 °C -1.4 °C 1029 hPa WNW 8 km/h 16.1 km/h 84 % 0 mm 0 W/m2
19:40 1.1 °C -1.3 °C 1029 hPa WNW 8 km/h 16.1 km/h 84 % 0 mm 0 W/m2
19:45 1.1 °C -1.3 °C 1029.3 hPa WNW 8 km/h 16.1 km/h 84 % 0 mm 0 W/m2
19:50 1.1 °C -1.2 °C 1029.3 hPa WNW 8 km/h 8 km/h 85 % 0 mm 0 W/m2
19:55 1.1 °C -1.1 °C 1029.3 hPa WNW 8 km/h 16.1 km/h 85 % 0 mm 0 W/m2
20:05 1.2 °C -1.1 °C 1029.3 hPa WNW 8 km/h 16.1 km/h 85 % 0 mm 0 W/m2
20:10 1.2 °C -1.1 °C 1029.3 hPa WNW 8 km/h 16.1 km/h 85 % 0 mm 0 W/m2
20:15 1.2 °C -0.9 °C 1029.3 hPa NW 8 km/h 16.1 km/h 86 % 0 mm 0 W/m2
20:20 1.2 °C -0.9 °C 1029 hPa WNW 9.7 km/h 16.1 km/h 86 % 0 mm 0 W/m2
20:25 1.3 °C -0.8 °C 1029.3 hPa WNW 9.7 km/h 16.1 km/h 86 % 0 mm 0 W/m2
20:30 1.4 °C -0.7 °C 1029 hPa NW 9.7 km/h 16.1 km/h 86 % 0 mm 0 W/m2
20:40 1.6 °C -0.5 °C 1029 hPa WNW 11.3 km/h 11.3 km/h 86 % 0 mm 0 W/m2
20:45 1.7 °C -0.4 °C 1029 hPa WNW 11.3 km/h 16.1 km/h 86 % 0 mm 0 W/m2
20:50 1.7 °C -0.6 °C 1029 hPa WNW 11.3 km/h 16.1 km/h 85 % 0 mm 0 W/m2
20:55 1.8 °C -0.5 °C 1029 hPa WNW 11.3 km/h 16.1 km/h 85 % 0 mm 0 W/m2
21:05 1.8 °C -0.5 °C 1029 hPa West 11.3 km/h 14.5 km/h 85 % 0 mm 0 W/m2
21:10 1.8 °C -0.5 °C 1029 hPa NW 12.9 km/h 12.9 km/h 85 % 0 mm 0 W/m2
21:15 1.7 °C -0.4 °C 1029 hPa WNW 11.3 km/h 16.1 km/h 86 % 0 mm 0 W/m2
21:25 1.8 °C -0.3 °C 1029 hPa NW 12.9 km/h 17.7 km/h 86 % 0 mm 0 W/m2
21:30 1.8 °C -0.3 °C 1029 hPa WNW 11.3 km/h 16.1 km/h 86 % 0 mm 0 W/m2
21:35 1.8 °C -0.3 °C 1029 hPa WNW 11.3 km/h 16.1 km/h 86 % 0 mm 0 W/m2
21:45 1.8 °C -0.3 °C 1029 hPa West 11.3 km/h 16.1 km/h 86 % 0 mm 0 W/m2
21:50 1.8 °C -0.3 °C 1028.7 hPa WNW 9.7 km/h 9.7 km/h 86 % 0 mm 0 W/m2
21:55 1.7 °C -0.4 °C 1029 hPa WNW 8 km/h 16.1 km/h 86 % 0 mm 0 W/m2
22:05 1.6 °C -0.6 °C 1028.7 hPa West 6.4 km/h 16.1 km/h 86 % 0 mm 0 W/m2
22:10 1.5 °C -0.4 °C 1028.7 hPa West 4.8 km/h 4.8 km/h 87 % 0 mm 0 W/m2
22:20 1.3 °C -0.7 °C 1028.7 hPa WNW 8 km/h 8 km/h 87 % 0 mm 0 W/m2
22:25 1.2 °C -0.6 °C 1028.7 hPa WNW 6.4 km/h 16.1 km/h 88 % 0 mm 0 W/m2
22:30 1.1 °C -0.7 °C 1028.7 hPa WNW 4.8 km/h 4.8 km/h 88 % 0 mm 0 W/m2
22:35 0.9 °C -0.8 °C 1028.7 hPa WNW 3.2 km/h 16.1 km/h 88 % 0 mm 0 W/m2
22:40 0.9 °C -0.9 °C 1028.7 hPa WNW 3.2 km/h 16.1 km/h 88 % 0 mm 0 W/m2
22:50 0.7 °C -1.1 °C 1028.7 hPa WNW 4.8 km/h 16.1 km/h 88 % 0 mm 0 W/m2
22:55 0.6 °C -1 °C 1028.7 hPa WNW 6.4 km/h 16.1 km/h 89 % 0 mm 0 W/m2
23:00 0.6 °C -0.8 °C 1028.7 hPa WNW 8 km/h 16.1 km/h 90 % 0 mm 0 W/m2
23:10 0.8 °C -0.4 °C 1028.7 hPa WNW 6.4 km/h 6.4 km/h 91 % 0 mm 0 W/m2
23:15 0.9 °C -0.6 °C 1028.7 hPa WNW 6.4 km/h 8 km/h 90 % 0 mm 0 W/m2
23:25 0.9 °C -0.5 °C 1028.7 hPa WNW 6.4 km/h 16.1 km/h 90 % 0 mm 0 W/m2
23:30 1 °C -0.3 °C 1028.7 hPa WNW 4.8 km/h 16.1 km/h 91 % 0 mm 0 W/m2
23:35 1.2 °C -0.1 °C 1028.7 hPa WNW 8 km/h 16.1 km/h 91 % 0 mm 0 W/m2
23:40 1.4 °C 0.1 °C 1028.7 hPa WNW 11.3 km/h 11.3 km/h 91 % 0 mm 0 W/m2
23:45 1.7 °C 0.3 °C 1028.7 hPa WNW 8 km/h 16.1 km/h 91 % 0 mm 0 W/m2
23:50 1.8 °C 0.5 °C 1028.7 hPa NW 8 km/h 16.1 km/h 91 % 0 mm 0 W/m2
Delerius-Weather
Compliments of Weather Underground - 2 mb

Data updates at regular intervals.